< < Back
Terminal Aerodrome Forecast


Current Version              Previous Versions:   1  2  3  4  5  6  7  8  9  

Terminal Aerodrome Forecast

356
FTUS42 KFFC 270749 AAA
TAFCSG
TAF AMD
KCSG 270749Z 2708/2806 23005KT P6SM SCT015
      TEMPO 2709/2713 BKN008
     FM271600 26008KT P6SM SCT060=

Latest METAR

956
SAUS70 KWBC 271054
MTRCSG
METAR KCSG 271051Z AUTO 00000KT 10SM CLR 23/22 A3005 RMK AO2 SLP169
T02330222


USA.gov is the U.S. government's official web portal to all federal, state and local government web resources and services.